富山 の空港の天気 - METARとTAF

富山空港 ( RJNT / TOY ) - 富山県富山市
飛行場実況気象(Metar)
観測時間05/25 19:00 JST (05/25 10:00 UTC)
風向・風速北 3m/s
視程10km以上
天気現象
少しの雲 雲底高度 460m
全天の4割程度の雲 雲底高度 910m
全天の8割程度の雲 雲底高度 1520m
気温22℃
湿度73%
気圧1004hPa
METARRJNT 251000Z 01005KT 9999 FEW015 SCT030 BKN050 22/17 Q1004
過去の天気等 Google飛行場航空写真 Wunderground天気予報

過去48時間のMETAR

飛行場予報(TAF)
発表時間: 5/25 14:06 JST (5/25 05:06 UTC)
予報対象時間: 25日15時 JST ~ 26日21時 JST
風向・風速北北東 3m/s
視程10km以上
少しの雲 雲底高度 460m
全天の4割程度の雲 雲底高度 1,830m
25日17時 JST ~ 25日19時 JST に徐々に
風向・風速南南東 2m/s
26日12時 JST ~ 26日15時 JST に徐々に
風向・風速西 5m/s
26日12時 JST ~ 26日15時 JST に一時的に
視程4,000m
天気現象しゅう雨 もや
26日15時 JST ~ 26日18時 JST に徐々に
風向・風速東 3m/s
26日18時 JST ~ 26日21時 JST に徐々に
風向・風速南 2m/s
TAF RJNT 250506Z 2506/2612 02005KT 9999 FEW015 SCT060
BECMG 2508/2510 16004KT
BECMG 2603/2606 27010KT
TEMPO 2603/2606 4000 SHRA BR
BECMG 2606/2609 08005KT
BECMG 2609/2612 18004KT
日本の空港のMETAR・TAFへのリンク

RJTT 東京国際空港
RJAA 新東京国際空港
RJBB 関西国際空港
RJOO 大阪空港
RJGG 中部国際空港
RJCC 新千歳空港
RJFF 福岡空港
ROAH 那覇空港


RJEC 旭川空港
RJCH 函館空港
RJCK 釧路空港
RJCM 女満別空港
RJCB 帯広空港
RJSA 青森空港
RJSS 仙台空港
RJSK 秋田空港
RJSF 福島空港
RJAH 茨城空港
RJSN 新潟空港
RJNT 富山空港
RJNK 小松飛行場
RJNS 静岡空港
RJOH 美保飛行場
RJOC 出雲空港
RJOB 岡山空港
RJOA 広島空港
RJOI 岩国飛行場
RJOT 高松空港
RJOM 松山空港
RJOK 高知空港
RJFR 北九州空港
RJFT 熊本空港
RJFU 長崎空港
RJFS 佐賀空港
RJFO 大分空港
RJFM 宮崎空港
RJFK 鹿児島空港
ROIG 石垣島空港
RJTY 横田飛行場
ROTM 普天間飛行場
RODN 嘉手納飛行場